createdAt,value
2023-02-13T00:01:02.013Z,23.30
2023-02-13T00:03:30.003Z,27.30
2023-02-13T00:05:57.369Z,37.40
2023-02-13T00:08:25.426Z,54.70
2023-02-13T00:10:52.764Z,66.70
2023-02-13T00:13:19.929Z,25.70
2023-02-13T00:15:55.873Z,26.00
2023-02-13T00:18:23.154Z,25.40
2023-02-13T00:21:09.792Z,18.70
2023-02-13T00:23:38.550Z,14.30
2023-02-13T00:26:08.264Z,13.80
2023-02-13T00:28:36.052Z,32.20
2023-02-13T00:31:12.087Z,18.30
2023-02-13T00:33:40.274Z,28.60
2023-02-13T00:36:16.261Z,18.20
2023-02-13T00:38:44.219Z,14.30
2023-02-13T00:41:12.307Z,16.90
2023-02-13T00:43:40.097Z,10.40
2023-02-13T00:46:07.507Z,9.20
2023-02-13T00:48:35.771Z,13.00
2023-02-13T00:51:03.903Z,17.00
2023-02-13T00:53:31.763Z,10.40
2023-02-13T00:55:59.017Z,11.80
2023-02-13T00:58:26.907Z,69.90
2023-02-13T01:00:55.747Z,42.00
2023-02-13T01:03:24.069Z,61.40
2023-02-13T01:05:52.235Z,39.70
2023-02-13T01:08:20.847Z,57.90
2023-02-13T01:10:49.371Z,48.40
2023-02-13T01:13:18.730Z,49.00
2023-02-13T01:15:47.355Z,27.80
2023-02-13T01:18:20.106Z,16.00
2023-02-13T01:21:01.060Z,17.80
2023-02-13T01:23:36.900Z,10.80
2023-02-13T01:26:09.107Z,10.60
2023-02-13T01:28:36.894Z,11.20
2023-02-13T01:31:04.462Z,6.80
2023-02-13T01:33:31.798Z,6.00
2023-02-13T01:36:00.602Z,6.40
2023-02-13T01:38:28.280Z,6.60
2023-02-13T01:40:55.924Z,4.90
2023-02-13T01:43:24.643Z,4.70
2023-02-13T01:45:56.483Z,5.00
2023-02-13T01:48:30.392Z,7.60
2023-02-13T01:51:06.340Z,6.40
2023-02-13T01:53:43.866Z,8.30
2023-02-13T01:56:24.624Z,5.80
2023-02-13T01:58:55.562Z,7.00
2023-02-13T02:01:24.984Z,8.70
2023-02-13T02:04:05.174Z,6.90
2023-02-13T02:06:40.312Z,7.00
2023-02-13T02:09:14.330Z,7.70
2023-02-13T02:11:50.309Z,8.00
2023-02-13T02:14:19.100Z,10.10
2023-02-13T02:16:46.495Z,11.80
2023-02-13T02:19:44.729Z,13.90
2023-02-13T02:22:21.075Z,8.20
2023-02-13T02:25:03.884Z,7.20
2023-02-13T02:27:37.165Z,8.20
2023-02-13T02:30:41.990Z,6.60
2023-02-13T02:33:34.094Z,5.40
2023-02-13T02:36:04.238Z,4.40
2023-02-13T02:38:40.600Z,4.80
2023-02-13T02:41:41.285Z,4.50
2023-02-13T02:44:36.616Z,3.90
2023-02-13T02:47:50.426Z,5.10
2023-02-13T02:50:31.786Z,4.40
2023-02-13T02:53:08.125Z,6.30
2023-02-13T02:56:17.094Z,5.80
2023-02-13T02:59:06.177Z,4.40
2023-02-13T03:01:53.594Z,6.80
2023-02-13T03:04:50.208Z,6.90
2023-02-13T03:07:19.369Z,4.70
2023-02-13T03:10:10.967Z,7.00
2023-02-13T03:13:06.424Z,5.60
2023-02-13T03:15:36.451Z,4.20
2023-02-13T03:18:22.420Z,5.60
2023-02-13T03:21:18.959Z,5.90
2023-02-13T03:24:01.231Z,6.20
2023-02-13T03:26:50.813Z,4.50
2023-02-13T03:29:46.993Z,5.20
2023-02-13T03:32:37.600Z,3.30
2023-02-13T03:35:37.708Z,4.10
2023-02-13T03:38:13.351Z,6.70
2023-02-13T03:41:08.720Z,3.90
2023-02-13T03:43:59.055Z,4.50
2023-02-13T03:46:29.263Z,3.20
2023-02-13T03:49:17.540Z,4.90
2023-02-13T03:51:48.672Z,4.20
2023-02-13T03:54:45.076Z,5.90
2023-02-13T03:57:37.447Z,3.40
2023-02-13T04:00:10.247Z,4.40
2023-02-13T04:03:01.262Z,5.10
2023-02-13T04:05:31.867Z,3.80
2023-02-13T04:07:59.086Z,2.90
2023-02-13T04:10:30.369Z,2.30
2023-02-13T04:13:21.042Z,6.80
2023-02-13T04:16:07.466Z,3.10
2023-02-13T04:18:35.374Z,3.80
2023-02-13T04:21:07.981Z,4.60
2023-02-13T04:23:36.910Z,3.60
2023-02-13T04:26:11.259Z,3.00
2023-02-13T04:28:38.535Z,3.60
2023-02-13T04:31:06.083Z,3.50
2023-02-13T04:33:33.602Z,3.30
2023-02-13T04:36:00.885Z,3.00
2023-02-13T04:38:29.136Z,2.70
2023-02-13T04:40:57.285Z,7.80
2023-02-13T04:43:25.539Z,3.30
2023-02-13T04:45:52.965Z,11.70
2023-02-13T04:48:20.272Z,11.80
2023-02-13T04:50:48.305Z,18.00
2023-02-13T04:53:15.575Z,11.50
2023-02-13T04:55:43.495Z,10.50
2023-02-13T04:58:10.813Z,5.30
2023-02-13T05:00:38.212Z,5.40
2023-02-13T05:03:07.768Z,3.00
2023-02-13T05:05:35.597Z,4.60
2023-02-13T05:08:02.952Z,10.20
2023-02-13T05:10:30.517Z,4.50
2023-02-13T05:12:58.145Z,9.90
2023-02-13T05:15:25.730Z,12.70
2023-02-13T05:17:53.134Z,8.00
2023-02-13T05:20:22.462Z,8.90
2023-02-13T05:23:10.909Z,14.80
2023-02-13T05:25:39.986Z,10.40
2023-02-13T05:28:30.537Z,40.40
2023-02-13T05:31:00.417Z,38.80
2023-02-13T05:33:28.845Z,16.70
2023-02-13T05:35:56.230Z,4.60
2023-02-13T05:38:23.444Z,38.90
2023-02-13T05:40:50.746Z,13.30
2023-02-13T05:43:21.560Z,41.80
2023-02-13T05:45:48.849Z,29.00
2023-02-13T05:48:19.213Z,53.30
2023-02-13T05:50:47.870Z,37.40
2023-02-13T05:53:15.136Z,17.10
2023-02-13T05:55:42.401Z,15.10
2023-02-13T05:58:09.733Z,106.40
2023-02-13T06:00:37.191Z,50.80
2023-02-13T06:03:04.551Z,18.90
2023-02-13T06:05:31.889Z,42.40
2023-02-13T06:07:59.586Z,34.50
2023-02-13T06:10:27.018Z,69.20
2023-02-13T06:12:54.397Z,12.60
2023-02-13T06:15:21.719Z,6.90
2023-02-13T06:17:49.128Z,3.80
2023-02-13T06:20:16.483Z,6.20
2023-02-13T06:22:43.742Z,4.70
2023-02-13T06:25:11.043Z,6.00
2023-02-13T06:27:38.455Z,2.20
2023-02-13T06:30:06.268Z,6.00
2023-02-13T06:32:36.271Z,3.10
2023-02-13T06:35:05.514Z,3.60
2023-02-13T06:37:33.450Z,3.60
2023-02-13T06:40:01.813Z,4.70
2023-02-13T06:42:31.834Z,3.60
2023-02-13T06:44:59.260Z,4.00
2023-02-13T06:47:29.029Z,3.30
2023-02-13T06:49:56.335Z,5.40
2023-02-13T06:52:23.695Z,4.40
2023-02-13T06:54:51.120Z,5.40
2023-02-13T06:57:18.670Z,3.50
2023-02-13T06:59:45.975Z,4.30
2023-02-13T07:02:13.878Z,3.80
2023-02-13T07:04:41.583Z,4.10
2023-02-13T07:07:08.858Z,21.10
2023-02-13T07:09:36.133Z,28.00
2023-02-13T07:12:09.603Z,15.90
2023-02-13T07:14:36.862Z,11.20
2023-02-13T07:17:04.138Z,24.40
2023-02-13T07:19:35.269Z,14.60
2023-02-13T07:22:02.576Z,16.00
2023-02-13T07:24:29.817Z,8.90
2023-02-13T07:26:57.170Z,17.20
2023-02-13T07:29:24.405Z,42.00
2023-02-13T07:31:52.639Z,19.60
2023-02-13T07:34:20.028Z,13.70
2023-02-13T07:36:47.265Z,5.20
2023-02-13T07:39:14.546Z,8.80
2023-02-13T07:41:41.850Z,6.40
2023-02-13T07:44:09.463Z,6.50
2023-02-13T07:46:38.294Z,13.10
2023-02-13T07:49:05.507Z,9.70
2023-02-13T07:51:35.357Z,10.50
2023-02-13T07:54:03.246Z,14.60
2023-02-13T07:56:30.567Z,17.40
2023-02-13T07:58:57.871Z,12.30
2023-02-13T08:01:25.326Z,11.10
2023-02-13T08:03:52.851Z,11.30
2023-02-13T08:06:21.120Z,10.00
2023-02-13T08:08:48.478Z,5.90
2023-02-13T08:12:00.869Z,14.90
2023-02-13T08:14:28.792Z,10.90
2023-02-13T08:16:59.444Z,6.00
2023-02-13T08:19:29.063Z,3.50
2023-02-13T08:21:56.609Z,13.90
2023-02-13T08:24:24.225Z,4.80
2023-02-13T08:26:51.544Z,7.20
2023-02-13T08:29:18.995Z,8.10
2023-02-13T08:31:46.315Z,10.40
2023-02-13T08:34:13.667Z,19.00
2023-02-13T08:36:40.950Z,26.90
2023-02-13T08:39:10.152Z,18.60
2023-02-13T08:41:37.463Z,19.70
2023-02-13T08:44:04.999Z,15.50
2023-02-13T08:46:32.421Z,12.40
2023-02-13T08:48:59.851Z,27.80
2023-02-13T08:51:27.868Z,23.20
2023-02-13T08:53:55.260Z,21.80
2023-02-13T08:56:22.516Z,12.70
2023-02-13T08:58:50.484Z,16.60
2023-02-13T09:01:19.034Z,12.50
2023-02-13T09:03:46.553Z,20.60
2023-02-13T09:06:14.090Z,15.10
2023-02-13T09:08:41.602Z,11.60
2023-02-13T09:14:23.788Z,11.90
2023-02-13T09:16:52.355Z,22.00
2023-02-13T09:19:19.925Z,12.40
2023-02-13T09:21:47.191Z,26.00
2023-02-13T09:24:14.624Z,16.80
2023-02-13T09:26:42.029Z,12.10
2023-02-13T09:29:09.365Z,12.50
2023-02-13T09:31:36.790Z,15.80
2023-02-13T09:34:04.101Z,19.40
2023-02-13T09:36:31.598Z,16.00
2023-02-13T09:38:59.223Z,10.60
2023-02-13T09:41:42.315Z,18.60
2023-02-13T09:44:39.147Z,41.70
2023-02-13T09:47:29.273Z,13.00
2023-02-13T09:50:13.743Z,9.40
2023-02-13T09:52:44.728Z,8.90
2023-02-13T09:55:18.716Z,10.30
2023-02-13T09:58:16.503Z,26.50
2023-02-13T10:00:51.649Z,40.30
2023-02-13T10:03:26.904Z,26.10
2023-02-13T10:06:08.411Z,17.50
2023-02-13T10:08:48.813Z,27.10
2023-02-13T10:11:42.763Z,37.30
2023-02-13T10:14:16.108Z,33.80
2023-02-13T10:16:54.823Z,52.80
2023-02-13T10:19:33.448Z,33.80
2023-02-13T10:22:07.325Z,58.90
2023-02-13T10:24:44.473Z,173.00
2023-02-13T10:27:22.717Z,51.20
2023-02-13T10:30:12.910Z,52.60
2023-02-13T10:33:11.544Z,39.30
2023-02-13T10:35:43.562Z,45.30
2023-02-13T10:38:20.923Z,31.80
2023-02-13T10:41:05.596Z,32.60
2023-02-13T10:43:45.195Z,17.80
2023-02-13T10:46:34.706Z,16.90
2023-02-13T10:49:35.623Z,8.30
2023-02-13T10:52:10.704Z,12.60
2023-02-13T10:55:03.086Z,10.90
2023-02-13T10:57:30.780Z,7.20
2023-02-13T11:00:04.009Z,6.50
2023-02-13T11:02:35.476Z,7.50
2023-02-13T11:05:39.283Z,7.90
2023-02-13T11:08:21.834Z,11.40
2023-02-13T11:10:49.785Z,9.40
2023-02-13T11:13:28.172Z,10.30
2023-02-13T11:16:12.388Z,10.90
2023-02-13T11:18:49.538Z,9.60
2023-02-13T11:21:22.312Z,12.40
2023-02-13T11:23:56.680Z,8.40
2023-02-13T11:26:35.407Z,9.50
2023-02-13T11:29:27.557Z,7.30
2023-02-13T11:32:30.436Z,6.90
2023-02-13T11:34:59.190Z,7.40
2023-02-13T11:37:29.853Z,10.90
2023-02-13T11:40:00.036Z,7.80
2023-02-13T11:42:31.503Z,6.10
2023-02-13T11:45:02.925Z,9.80
2023-02-13T11:47:38.754Z,7.00
2023-02-13T11:50:21.765Z,7.20
2023-02-13T11:52:56.886Z,4.50
2023-02-13T11:55:25.886Z,3.90
2023-02-13T11:58:28.304Z,3.20
2023-02-13T12:01:31.074Z,6.80
2023-02-13T12:03:58.379Z,3.50
2023-02-13T12:06:25.892Z,3.80
2023-02-13T12:08:53.232Z,4.20
2023-02-13T12:11:29.238Z,3.20
2023-02-13T12:13:57.774Z,3.60
2023-02-13T12:16:41.595Z,3.60
2023-02-13T12:19:17.569Z,4.20
2023-02-13T12:22:15.974Z,4.60
2023-02-13T12:25:01.797Z,4.40
2023-02-13T12:27:43.267Z,4.20
2023-02-13T12:30:13.730Z,5.20
2023-02-13T12:32:47.010Z,13.90
2023-02-13T12:35:36.247Z,21.70
2023-02-13T12:38:03.522Z,6.90
2023-02-13T12:40:54.343Z,4.10
2023-02-13T12:43:46.558Z,11.50
2023-02-13T12:46:28.186Z,14.30
2023-02-13T12:49:22.078Z,15.60
2023-02-13T12:52:21.220Z,8.30
2023-02-13T12:55:13.241Z,7.70
2023-02-13T12:57:52.082Z,21.30
2023-02-13T13:00:37.901Z,9.90
2023-02-13T13:03:14.276Z,11.30
2023-02-13T13:06:03.591Z,6.40
2023-02-13T13:08:38.009Z,7.60
2023-02-13T13:11:26.274Z,4.40
2023-02-13T13:14:38.223Z,9.70
2023-02-13T13:17:14.244Z,16.10
2023-02-13T13:19:54.696Z,16.30
2023-02-13T13:22:34.486Z,16.20
2023-02-13T13:25:18.846Z,9.90
2023-02-13T13:27:49.929Z,8.60
2023-02-13T13:30:28.185Z,5.20
2023-02-13T13:33:02.695Z,3.80
2023-02-13T13:35:30.782Z,6.30
2023-02-13T13:38:22.935Z,6.40
2023-02-13T13:41:01.978Z,3.70
2023-02-13T13:43:52.454Z,5.20
2023-02-13T13:46:24.458Z,4.10
2023-02-13T13:49:09.993Z,4.50
2023-02-13T13:51:37.922Z,3.40
2023-02-13T13:54:08.268Z,4.10
2023-02-13T13:56:53.790Z,6.60
2023-02-13T13:59:51.733Z,8.90
2023-02-13T14:02:19.270Z,8.00
2023-02-13T14:05:10.984Z,10.30
2023-02-13T14:07:41.698Z,6.50
2023-02-13T14:10:20.931Z,8.50
2023-02-13T14:12:51.144Z,5.90
2023-02-13T14:15:39.821Z,56.60
2023-02-13T14:18:08.312Z,33.30
2023-02-13T14:20:45.636Z,44.30
2023-02-13T14:23:34.804Z,60.80
2023-02-13T14:26:17.907Z,31.50
2023-02-13T14:28:51.232Z,11.40
2023-02-13T14:31:23.236Z,8.70
2023-02-13T14:34:03.183Z,8.30
2023-02-13T14:36:52.392Z,13.10
2023-02-13T14:39:24.106Z,8.00
2023-02-13T14:41:51.319Z,21.00
2023-02-13T14:44:22.572Z,12.60
2023-02-13T14:46:52.742Z,8.00
2023-02-13T14:49:32.656Z,8.00
2023-02-13T14:52:14.270Z,9.30
2023-02-13T14:54:55.632Z,11.70
2023-02-13T14:57:38.677Z,9.30
2023-02-13T15:00:28.538Z,12.70
2023-02-13T15:03:02.610Z,14.90
2023-02-13T15:05:33.991Z,18.00
2023-02-13T15:08:04.182Z,26.70
2023-02-13T15:10:47.302Z,11.80
2023-02-13T15:13:19.936Z,8.60
2023-02-13T15:16:10.427Z,8.30
2023-02-13T15:18:52.862Z,7.50
2023-02-13T15:21:22.628Z,10.70
2023-02-13T15:23:52.711Z,7.10
2023-02-13T15:26:24.003Z,11.10
2023-02-13T15:29:27.759Z,9.10
2023-02-13T15:31:59.856Z,11.30
2023-02-13T15:34:30.655Z,9.50
2023-02-13T15:36:58.211Z,9.70
2023-02-13T15:39:28.210Z,10.50
2023-02-13T15:42:01.993Z,8.40
2023-02-13T15:44:38.354Z,5.50
2023-02-13T15:47:10.141Z,6.70
2023-02-13T15:49:46.800Z,11.60
2023-02-13T15:52:40.805Z,8.50
2023-02-13T15:55:23.002Z,13.60
2023-02-13T15:57:55.251Z,7.00
2023-02-13T16:00:33.351Z,10.60
2023-02-13T16:03:03.312Z,10.50
2023-02-13T16:05:40.367Z,10.60
2023-02-13T16:08:40.795Z,10.60
2023-02-13T16:11:17.206Z,9.40
2023-02-13T16:14:05.211Z,8.00
2023-02-13T16:17:03.762Z,7.60
2023-02-13T16:19:37.798Z,10.30
2023-02-13T16:22:22.051Z,13.50
2023-02-13T16:24:52.310Z,10.30
2023-02-13T16:27:27.919Z,8.30
2023-02-13T16:30:01.340Z,8.30
2023-02-13T16:32:32.462Z,8.40
2023-02-13T16:35:18.901Z,15.70
2023-02-13T16:37:59.013Z,12.30
2023-02-13T16:40:38.598Z,9.40
2023-02-13T16:43:43.183Z,9.50
2023-02-13T16:46:19.390Z,8.30
2023-02-13T16:48:56.512Z,9.70
2023-02-13T16:51:31.864Z,10.60
2023-02-13T16:54:31.377Z,9.10
2023-02-13T16:57:05.881Z,10.10
2023-02-13T16:59:48.476Z,9.30
2023-02-13T17:02:44.758Z,9.60
2023-02-13T17:05:19.313Z,9.00
2023-02-13T17:07:48.589Z,7.50
2023-02-13T17:10:28.452Z,9.00
2023-02-13T17:12:58.378Z,9.60
2023-02-13T17:15:28.506Z,8.60
2023-02-13T17:17:55.833Z,11.60
2023-02-13T17:20:29.342Z,8.20
2023-02-13T17:22:58.672Z,10.60
2023-02-13T17:25:31.579Z,14.10
2023-02-13T17:28:02.158Z,14.00
2023-02-13T17:30:33.715Z,12.50
2023-02-13T17:33:07.350Z,18.20
2023-02-13T17:35:35.587Z,13.80
2023-02-13T17:38:03.146Z,13.00
2023-02-13T17:40:32.021Z,14.40
2023-02-13T17:42:59.981Z,17.50
2023-02-13T17:45:30.385Z,14.40
2023-02-13T17:48:00.945Z,19.20
2023-02-13T17:50:31.924Z,12.40
2023-02-13T17:53:03.347Z,12.20
2023-02-13T17:55:32.437Z,13.20
2023-02-13T17:58:01.504Z,10.10
2023-02-13T18:00:31.640Z,21.40
2023-02-13T18:03:00.389Z,20.30
2023-02-13T18:05:28.676Z,16.60
2023-02-13T18:07:56.148Z,12.30
2023-02-13T18:10:26.054Z,33.20
2023-02-13T18:12:54.244Z,73.40
2023-02-13T18:15:21.422Z,77.90
2023-02-13T18:17:49.259Z,152.00
2023-02-13T18:20:19.234Z,180.20
2023-02-13T18:22:46.911Z,484.70
2023-02-13T18:25:14.135Z,326.60
2023-02-13T18:27:41.354Z,160.70
2023-02-13T18:30:10.013Z,91.40
2023-02-13T18:32:37.321Z,159.30
2023-02-13T18:35:04.970Z,162.60
2023-02-13T18:37:33.622Z,206.00
2023-02-13T18:40:00.856Z,136.80
2023-02-13T18:42:31.035Z,112.30
2023-02-13T18:44:58.160Z,248.50
2023-02-13T18:47:25.403Z,88.20
2023-02-13T18:49:52.658Z,79.10
2023-02-13T18:52:19.920Z,36.40
2023-02-13T18:54:48.469Z,128.50
2023-02-13T18:57:16.006Z,116.20
2023-02-13T18:59:43.130Z,169.10
2023-02-13T19:02:10.960Z,49.30
2023-02-13T19:04:38.457Z,38.90
2023-02-13T19:07:05.667Z,93.30
2023-02-13T19:09:33.058Z,65.70
2023-02-13T19:12:00.436Z,39.20
2023-02-13T19:14:27.635Z,77.50
2023-02-13T19:16:54.791Z,39.90
2023-02-13T19:19:22.159Z,39.30
2023-02-13T19:21:49.608Z,34.70
2023-02-13T19:24:16.892Z,21.70
2023-02-13T19:26:44.740Z,36.00
2023-02-13T19:29:11.887Z,42.80
2023-02-13T19:31:39.745Z,35.30
2023-02-13T19:34:07.243Z,53.30
2023-02-13T19:36:37.133Z,42.80
2023-02-13T19:39:06.936Z,26.20
2023-02-13T19:41:34.469Z,52.60
2023-02-13T19:44:02.428Z,25.40
2023-02-13T19:46:31.946Z,41.40
2023-02-13T19:49:03.380Z,31.30
2023-02-13T19:51:32.918Z,34.00
2023-02-13T19:54:04.918Z,22.90
2023-02-13T19:56:34.634Z,24.10
2023-02-13T19:59:03.341Z,19.40
2023-02-13T20:01:31.141Z,18.00
2023-02-13T20:03:59.172Z,16.70
2023-02-13T20:06:37.812Z,18.80
2023-02-13T20:09:09.090Z,14.20
2023-02-13T20:11:40.953Z,14.00
2023-02-13T20:14:14.600Z,18.60
2023-02-13T20:16:43.176Z,12.20
2023-02-13T20:19:11.865Z,10.80
2023-02-13T20:21:39.657Z,9.40
2023-02-13T20:24:08.001Z,14.30
2023-02-13T20:26:35.642Z,10.80
2023-02-13T20:29:03.581Z,9.60
2023-02-13T20:31:34.602Z,11.50
2023-02-13T20:34:02.946Z,13.20
2023-02-13T20:36:32.666Z,30.20
2023-02-13T20:39:03.205Z,26.20
2023-02-13T20:41:33.690Z,12.00
2023-02-13T20:44:11.714Z,8.30
2023-02-13T20:46:40.193Z,15.60
2023-02-13T20:49:07.828Z,23.00
2023-02-13T20:51:35.242Z,13.00
2023-02-13T20:54:02.873Z,12.60
2023-02-13T20:56:32.624Z,14.50
2023-02-13T20:59:02.655Z,12.30
2023-02-13T21:01:33.262Z,7.30
2023-02-13T21:04:01.234Z,9.80
2023-02-13T21:06:35.791Z,8.40
2023-02-13T21:09:05.769Z,10.70
2023-02-13T21:11:34.621Z,11.50
2023-02-13T21:14:03.531Z,11.10
2023-02-13T21:16:37.034Z,15.20
2023-02-13T21:19:08.201Z,16.10
2023-02-13T21:21:37.416Z,8.30
2023-02-13T21:24:08.380Z,9.80
2023-02-13T21:26:36.175Z,9.60
2023-02-13T21:29:04.463Z,10.20
2023-02-13T21:31:44.550Z,8.70
2023-02-13T21:34:12.676Z,9.00
2023-02-13T21:36:42.584Z,11.30
2023-02-13T21:39:11.710Z,12.30
2023-02-13T21:41:44.500Z,12.30
2023-02-13T21:44:16.171Z,11.40
2023-02-13T21:46:44.937Z,9.10
2023-02-13T21:49:15.684Z,12.80
2023-02-13T21:51:44.394Z,8.80
2023-02-13T21:54:11.833Z,11.70
2023-02-13T21:56:41.930Z,10.80
2023-02-13T21:59:14.202Z,12.10
2023-02-13T22:01:41.698Z,8.90
2023-02-13T22:04:10.490Z,11.20
2023-02-13T22:06:40.093Z,7.50
2023-02-13T22:09:08.826Z,11.50
2023-02-13T22:11:37.094Z,6.70
2023-02-13T22:14:07.885Z,11.00
2023-02-13T22:16:37.412Z,15.20
2023-02-13T22:19:06.801Z,10.20
2023-02-13T22:21:35.977Z,20.40
2023-02-13T22:24:04.159Z,20.10
2023-02-13T22:26:34.252Z,18.90
2023-02-13T22:29:07.941Z,12.70
2023-02-13T22:31:36.166Z,23.40
2023-02-13T22:34:05.341Z,73.70
2023-02-13T22:36:41.344Z,31.90
2023-02-13T22:39:10.406Z,15.40
2023-02-13T22:41:37.990Z,27.30
2023-02-13T22:44:06.407Z,22.20
2023-02-13T22:46:34.584Z,18.80
2023-02-13T22:49:02.454Z,17.90
2023-02-13T22:51:34.004Z,29.60
2023-02-13T22:54:01.723Z,37.60
2023-02-13T22:56:30.978Z,47.00
2023-02-13T22:58:59.463Z,91.00
2023-02-13T23:01:28.473Z,65.90
2023-02-13T23:03:56.884Z,54.50
2023-02-13T23:06:24.851Z,28.90
2023-02-13T23:08:56.160Z,29.80
2023-02-13T23:11:45.032Z,23.90
2023-02-13T23:14:12.893Z,21.30
2023-02-13T23:16:59.792Z,21.90
2023-02-13T23:19:30.485Z,34.40
2023-02-13T23:21:59.537Z,37.80
2023-02-13T23:24:29.459Z,33.10
2023-02-13T23:26:58.155Z,14.90
2023-02-13T23:29:26.373Z,12.00
2023-02-13T23:31:54.007Z,7.10
2023-02-13T23:34:22.283Z,8.40
2023-02-13T23:36:51.262Z,11.70
2023-02-13T23:39:19.568Z,9.70
2023-02-13T23:41:47.004Z,7.80
2023-02-13T23:44:16.589Z,9.70
2023-02-13T23:46:44.192Z,9.00
2023-02-13T23:49:11.603Z,9.00
2023-02-13T23:51:38.970Z,10.30
2023-02-13T23:54:06.378Z,8.20
2023-02-13T23:56:33.705Z,17.80
2023-02-13T23:59:01.191Z,8.50
